sensor_id;sensor_type;location;lat;lon;timestamp;P1;durP1;ratioP1;P2;durP2;ratioP2
21901;SDS011;11115;46.038;14.612;2023-02-03T00:02:26;1.57;;;1.00;;
21901;SDS011;11115;46.038;14.612;2023-02-03T00:04:54;7.63;;;3.00;;
21901;SDS011;11115;46.038;14.612;2023-02-03T00:07:22;2.23;;;1.63;;
21901;SDS011;11115;46.038;14.612;2023-02-03T00:09:49;8.37;;;2.93;;
21901;SDS011;11115;46.038;14.612;2023-02-03T00:12:17;5.43;;;3.03;;
21901;SDS011;11115;46.038;14.612;2023-02-03T00:14:45;5.03;;;2.90;;
21901;SDS011;11115;46.038;14.612;2023-02-03T00:17:13;11.97;;;5.17;;
21901;SDS011;11115;46.038;14.612;2023-02-03T00:19:41;17.93;;;3.53;;
21901;SDS011;11115;46.038;14.612;2023-02-03T00:22:08;14.30;;;6.20;;
21901;SDS011;11115;46.038;14.612;2023-02-03T00:24:36;11.73;;;3.10;;
21901;SDS011;11115;46.038;14.612;2023-02-03T00:27:04;8.97;;;3.03;;
21901;SDS011;11115;46.038;14.612;2023-02-03T00:29:32;3.77;;;1.77;;
21901;SDS011;11115;46.038;14.612;2023-02-03T00:31:59;2.87;;;1.83;;
21901;SDS011;11115;46.038;14.612;2023-02-03T00:34:28;4.50;;;2.37;;
21901;SDS011;11115;46.038;14.612;2023-02-03T00:36:56;2.73;;;1.03;;
21901;SDS011;11115;46.038;14.612;2023-02-03T00:39:24;1.33;;;0.90;;
21901;SDS011;11115;46.038;14.612;2023-02-03T00:41:52;2.83;;;1.93;;
21901;SDS011;11115;46.038;14.612;2023-02-03T00:44:21;4.27;;;1.97;;
21901;SDS011;11115;46.038;14.612;2023-02-03T00:46:49;1.37;;;1.27;;
21901;SDS011;11115;46.038;14.612;2023-02-03T00:49:17;1.53;;;1.43;;
21901;SDS011;11115;46.038;14.612;2023-02-03T00:51:45;1.07;;;1.07;;
21901;SDS011;11115;46.038;14.612;2023-02-03T00:54:12;4.60;;;1.67;;
21901;SDS011;11115;46.038;14.612;2023-02-03T00:56:40;2.50;;;1.37;;
21901;SDS011;11115;46.038;14.612;2023-02-03T00:59:08;1.10;;;1.00;;
21901;SDS011;11115;46.038;14.612;2023-02-03T01:01:36;5.83;;;1.07;;
21901;SDS011;11115;46.038;14.612;2023-02-03T01:04:05;7.37;;;1.03;;
21901;SDS011;11115;46.038;14.612;2023-02-03T01:06:33;0.30;;;0.30;;
21901;SDS011;11115;46.038;14.612;2023-02-03T01:09:01;1.20;;;0.60;;
21901;SDS011;11115;46.038;14.612;2023-02-03T01:11:32;0.47;;;0.47;;
21901;SDS011;11115;46.038;14.612;2023-02-03T01:14:00;1.27;;;0.93;;
21901;SDS011;11115;46.038;14.612;2023-02-03T01:16:29;1.30;;;0.67;;
21901;SDS011;11115;46.038;14.612;2023-02-03T01:19:01;0.87;;;0.73;;
21901;SDS011;11115;46.038;14.612;2023-02-03T01:21:29;0.60;;;0.60;;
21901;SDS011;11115;46.038;14.612;2023-02-03T01:23:58;2.23;;;1.23;;
21901;SDS011;11115;46.038;14.612;2023-02-03T01:26:26;1.07;;;0.97;;
21901;SDS011;11115;46.038;14.612;2023-02-03T01:28:55;7.23;;;2.30;;
21901;SDS011;11115;46.038;14.612;2023-02-03T01:31:29;10.52;;;3.85;;
21901;SDS011;11115;46.038;14.612;2023-02-03T01:34:00;7.87;;;2.70;;
21901;SDS011;11115;46.038;14.612;2023-02-03T01:36:28;1.43;;;0.83;;
21901;SDS011;11115;46.038;14.612;2023-02-03T01:38:57;5.50;;;1.70;;
21901;SDS011;11115;46.038;14.612;2023-02-03T01:41:26;0.87;;;0.83;;
21901;SDS011;11115;46.038;14.612;2023-02-03T01:43:57;2.40;;;0.90;;
21901;SDS011;11115;46.038;14.612;2023-02-03T01:46:32;5.47;;;0.50;;
21901;SDS011;11115;46.038;14.612;2023-02-03T01:49:08;0.77;;;0.67;;
21901;SDS011;11115;46.038;14.612;2023-02-03T01:51:41;3.50;;;1.73;;
21901;SDS011;11115;46.038;14.612;2023-02-03T01:54:13;0.93;;;0.80;;
21901;SDS011;11115;46.038;14.612;2023-02-03T01:56:47;1.57;;;1.47;;
21901;SDS011;11115;46.038;14.612;2023-02-03T01:59:21;1.27;;;1.17;;
21901;SDS011;11115;46.038;14.612;2023-02-03T02:01:51;1.30;;;1.20;;
21901;SDS011;11115;46.038;14.612;2023-02-03T02:04:20;0.87;;;0.83;;
21901;SDS011;11115;46.038;14.612;2023-02-03T02:06:51;0.63;;;0.60;;
21901;SDS011;11115;46.038;14.612;2023-02-03T02:09:19;1.93;;;1.03;;
21901;SDS011;11115;46.038;14.612;2023-02-03T02:11:47;0.63;;;0.63;;
21901;SDS011;11115;46.038;14.612;2023-02-03T02:14:14;1.20;;;0.80;;
21901;SDS011;11115;46.038;14.612;2023-02-03T02:19:47;1.40;;;0.97;;
21901;SDS011;11115;46.038;14.612;2023-02-03T02:33:56;0.30;;;0.30;;
21901;SDS011;11115;46.038;14.612;2023-02-03T02:36:33;0.60;;;0.37;;
21901;SDS011;11115;46.038;14.612;2023-02-03T02:39:32;2.87;;;0.30;;
21901;SDS011;11115;46.038;14.612;2023-02-03T02:42:08;1.33;;;1.20;;
21901;SDS011;11115;46.038;14.612;2023-02-03T02:44:48;3.27;;;1.97;;
21901;SDS011;11115;46.038;14.612;2023-02-03T02:47:21;4.23;;;1.97;;
21901;SDS011;11115;46.038;14.612;2023-02-03T02:49:53;6.73;;;1.60;;
21901;SDS011;11115;46.038;14.612;2023-02-03T02:52:29;1.80;;;1.03;;
21901;SDS011;11115;46.038;14.612;2023-02-03T02:57:32;1.83;;;1.30;;
21901;SDS011;11115;46.038;14.612;2023-02-03T03:00:03;5.50;;;3.20;;
21901;SDS011;11115;46.038;14.612;2023-02-03T03:02:33;7.30;;;2.30;;
21901;SDS011;11115;46.038;14.612;2023-02-03T03:05:03;1.23;;;0.63;;
21901;SDS011;11115;46.038;14.612;2023-02-03T03:07:43;8.67;;;0.73;;
21901;SDS011;11115;46.038;14.612;2023-02-03T03:10:17;3.23;;;1.53;;
21901;SDS011;11115;46.038;14.612;2023-02-03T03:12:53;1.57;;;1.17;;
21901;SDS011;11115;46.038;14.612;2023-02-03T03:15:28;1.20;;;1.10;;
21901;SDS011;11115;46.038;14.612;2023-02-03T03:20:37;1.63;;;1.33;;
21901;SDS011;11115;46.038;14.612;2023-02-03T03:23:10;1.10;;;0.97;;
21901;SDS011;11115;46.038;14.612;2023-02-03T03:25:48;6.17;;;1.30;;
21901;SDS011;11115;46.038;14.612;2023-02-03T03:28:21;16.93;;;1.90;;
21901;SDS011;11115;46.038;14.612;2023-02-03T03:30:52;1.67;;;0.80;;
21901;SDS011;11115;46.038;14.612;2023-02-03T03:33:20;2.13;;;0.80;;
21901;SDS011;11115;46.038;14.612;2023-02-03T03:38:24;0.27;;;0.27;;
21901;SDS011;11115;46.038;14.612;2023-02-03T03:41:07;1.53;;;1.37;;
21901;SDS011;11115;46.038;14.612;2023-02-03T03:43:39;1.10;;;0.53;;
21901;SDS011;11115;46.038;14.612;2023-02-03T03:46:12;0.77;;;0.77;;
21901;SDS011;11115;46.038;14.612;2023-02-03T03:48:50;0.50;;;0.50;;
21901;SDS011;11115;46.038;14.612;2023-02-03T03:51:25;1.53;;;1.30;;
21901;SDS011;11115;46.038;14.612;2023-02-03T03:54:11;1.37;;;0.73;;
21901;SDS011;11115;46.038;14.612;2023-02-03T03:59:28;4.43;;;2.00;;
21901;SDS011;11115;46.038;14.612;2023-02-03T04:02:00;3.30;;;1.70;;
21901;SDS011;11115;46.038;14.612;2023-02-03T04:04:31;11.70;;;2.47;;
21901;SDS011;11115;46.038;14.612;2023-02-03T04:07:01;6.90;;;1.08;;
21901;SDS011;11115;46.038;14.612;2023-02-03T04:09:29;1.20;;;0.87;;
21901;SDS011;11115;46.038;14.612;2023-02-03T04:11:57;1.97;;;1.50;;
21901;SDS011;11115;46.038;14.612;2023-02-03T04:14:31;6.60;;;1.77;;
21901;SDS011;11115;46.038;14.612;2023-02-03T04:17:04;0.60;;;0.60;;
21901;SDS011;11115;46.038;14.612;2023-02-03T04:19:32;2.27;;;1.47;;
21901;SDS011;11115;46.038;14.612;2023-02-03T04:22:00;8.13;;;1.63;;
21901;SDS011;11115;46.038;14.612;2023-02-03T04:24:27;11.17;;;1.23;;
21901;SDS011;11115;46.038;14.612;2023-02-03T04:26:55;3.13;;;2.10;;
21901;SDS011;11115;46.038;14.612;2023-02-03T04:29:23;4.43;;;1.43;;
21901;SDS011;11115;46.038;14.612;2023-02-03T04:31:50;6.13;;;2.10;;
21901;SDS011;11115;46.038;14.612;2023-02-03T04:34:18;1.13;;;0.93;;
21901;SDS011;11115;46.038;14.612;2023-02-03T04:36:46;1.13;;;0.80;;
21901;SDS011;11115;46.038;14.612;2023-02-03T04:39:13;4.17;;;1.70;;
21901;SDS011;11115;46.038;14.612;2023-02-03T04:41:41;3.00;;;0.97;;
21901;SDS011;11115;46.038;14.612;2023-02-03T04:44:09;0.90;;;0.90;;
21901;SDS011;11115;46.038;14.612;2023-02-03T04:46:36;3.00;;;1.00;;
21901;SDS011;11115;46.038;14.612;2023-02-03T04:49:04;0.83;;;0.80;;
21901;SDS011;11115;46.038;14.612;2023-02-03T04:51:32;3.13;;;1.10;;
21901;SDS011;11115;46.038;14.612;2023-02-03T04:54:00;1.27;;;1.00;;
21901;SDS011;11115;46.038;14.612;2023-02-03T04:56:27;4.00;;;2.30;;
21901;SDS011;11115;46.038;14.612;2023-02-03T04:58:55;1.70;;;1.17;;
21901;SDS011;11115;46.038;14.612;2023-02-03T05:01:22;3.30;;;0.73;;
21901;SDS011;11115;46.038;14.612;2023-02-03T05:03:50;0.87;;;0.73;;
21901;SDS011;11115;46.038;14.612;2023-02-03T05:06:22;0.87;;;0.87;;
21901;SDS011;11115;46.038;14.612;2023-02-03T05:08:55;2.93;;;1.53;;
21901;SDS011;11115;46.038;14.612;2023-02-03T05:11:23;2.13;;;1.57;;
21901;SDS011;11115;46.038;14.612;2023-02-03T05:13:52;2.70;;;1.30;;
21901;SDS011;11115;46.038;14.612;2023-02-03T05:16:20;1.70;;;1.20;;
21901;SDS011;11115;46.038;14.612;2023-02-03T05:18:48;1.90;;;1.20;;
21901;SDS011;11115;46.038;14.612;2023-02-03T05:21:16;4.57;;;1.70;;
21901;SDS011;11115;46.038;14.612;2023-02-03T05:23:44;2.13;;;1.03;;
21901;SDS011;11115;46.038;14.612;2023-02-03T05:26:12;1.63;;;1.20;;
21901;SDS011;11115;46.038;14.612;2023-02-03T05:28:39;0.77;;;0.63;;
21901;SDS011;11115;46.038;14.612;2023-02-03T05:31:07;3.43;;;2.03;;
21901;SDS011;11115;46.038;14.612;2023-02-03T05:33:35;4.23;;;1.67;;
21901;SDS011;11115;46.038;14.612;2023-02-03T05:36:03;3.90;;;2.03;;
21901;SDS011;11115;46.038;14.612;2023-02-03T05:38:30;1.53;;;1.33;;
21901;SDS011;11115;46.038;14.612;2023-02-03T05:40:58;7.73;;;1.03;;
21901;SDS011;11115;46.038;14.612;2023-02-03T05:43:43;4.37;;;2.00;;
21901;SDS011;11115;46.038;14.612;2023-02-03T05:46:11;5.00;;;2.67;;
21901;SDS011;11115;46.038;14.612;2023-02-03T05:48:39;1.77;;;1.37;;
21901;SDS011;11115;46.038;14.612;2023-02-03T05:51:07;2.20;;;1.33;;
21901;SDS011;11115;46.038;14.612;2023-02-03T05:53:34;2.03;;;1.17;;
21901;SDS011;11115;46.038;14.612;2023-02-03T05:56:02;3.37;;;2.00;;
21901;SDS011;11115;46.038;14.612;2023-02-03T05:58:30;2.50;;;1.80;;
21901;SDS011;11115;46.038;14.612;2023-02-03T06:00:57;2.13;;;0.97;;
21901;SDS011;11115;46.038;14.612;2023-02-03T06:03:25;2.70;;;1.97;;
21901;SDS011;11115;46.038;14.612;2023-02-03T06:05:53;3.97;;;2.60;;
21901;SDS011;11115;46.038;14.612;2023-02-03T06:08:20;2.20;;;1.13;;
21901;SDS011;11115;46.038;14.612;2023-02-03T06:10:48;1.47;;;1.37;;
21901;SDS011;11115;46.038;14.612;2023-02-03T06:13:16;1.47;;;1.37;;
21901;SDS011;11115;46.038;14.612;2023-02-03T06:15:43;1.40;;;1.20;;
21901;SDS011;11115;46.038;14.612;2023-02-03T06:18:11;3.07;;;2.07;;
21901;SDS011;11115;46.038;14.612;2023-02-03T06:20:39;3.43;;;1.70;;
21901;SDS011;11115;46.038;14.612;2023-02-03T06:23:06;3.73;;;1.37;;
21901;SDS011;11115;46.038;14.612;2023-02-03T06:25:34;3.77;;;2.73;;
21901;SDS011;11115;46.038;14.612;2023-02-03T06:28:02;6.70;;;3.63;;
21901;SDS011;11115;46.038;14.612;2023-02-03T06:30:30;4.13;;;2.97;;
21901;SDS011;11115;46.038;14.612;2023-02-03T06:32:58;5.27;;;3.17;;
21901;SDS011;11115;46.038;14.612;2023-02-03T06:35:25;9.23;;;3.07;;
21901;SDS011;11115;46.038;14.612;2023-02-03T06:37:53;4.17;;;3.10;;
21901;SDS011;11115;46.038;14.612;2023-02-03T06:40:21;7.23;;;2.17;;
21901;SDS011;11115;46.038;14.612;2023-02-03T06:42:49;3.83;;;1.77;;
21901;SDS011;11115;46.038;14.612;2023-02-03T06:45:17;3.13;;;2.33;;
21901;SDS011;11115;46.038;14.612;2023-02-03T06:47:45;2.33;;;1.10;;
21901;SDS011;11115;46.038;14.612;2023-02-03T06:50:13;1.90;;;1.70;;
21901;SDS011;11115;46.038;14.612;2023-02-03T06:52:41;3.90;;;2.47;;
21901;SDS011;11115;46.038;14.612;2023-02-03T06:55:09;7.17;;;3.20;;
21901;SDS011;11115;46.038;14.612;2023-02-03T06:57:44;9.03;;;3.60;;
21901;SDS011;11115;46.038;14.612;2023-02-03T07:00:14;6.53;;;2.93;;
21901;SDS011;11115;46.038;14.612;2023-02-03T07:02:44;7.45;;;2.90;;
21901;SDS011;11115;46.038;14.612;2023-02-03T07:05:13;6.43;;;3.50;;
21901;SDS011;11115;46.038;14.612;2023-02-03T07:07:40;7.27;;;4.53;;
21901;SDS011;11115;46.038;14.612;2023-02-03T07:10:08;8.33;;;2.67;;
21901;SDS011;11115;46.038;14.612;2023-02-03T07:12:36;5.80;;;2.87;;
21901;SDS011;11115;46.038;14.612;2023-02-03T07:15:04;7.97;;;3.00;;
21901;SDS011;11115;46.038;14.612;2023-02-03T07:17:32;9.40;;;3.57;;
21901;SDS011;11115;46.038;14.612;2023-02-03T07:20:00;3.93;;;2.90;;
21901;SDS011;11115;46.038;14.612;2023-02-03T07:22:27;3.20;;;2.67;;
21901;SDS011;11115;46.038;14.612;2023-02-03T07:24:55;7.27;;;3.93;;
21901;SDS011;11115;46.038;14.612;2023-02-03T07:27:23;5.37;;;2.47;;
21901;SDS011;11115;46.038;14.612;2023-02-03T07:29:50;1.37;;;1.27;;
21901;SDS011;11115;46.038;14.612;2023-02-03T07:32:18;2.70;;;1.53;;
21901;SDS011;11115;46.038;14.612;2023-02-03T07:34:46;8.63;;;3.53;;
21901;SDS011;11115;46.038;14.612;2023-02-03T07:37:14;2.80;;;1.83;;
21901;SDS011;11115;46.038;14.612;2023-02-03T07:39:41;13.60;;;3.83;;
21901;SDS011;11115;46.038;14.612;2023-02-03T07:42:09;8.43;;;3.53;;
21901;SDS011;11115;46.038;14.612;2023-02-03T07:44:42;5.90;;;2.43;;
21901;SDS011;11115;46.038;14.612;2023-02-03T07:47:10;4.67;;;2.63;;
21901;SDS011;11115;46.038;14.612;2023-02-03T07:49:37;5.63;;;3.20;;
21901;SDS011;11115;46.038;14.612;2023-02-03T07:52:05;2.83;;;2.37;;
21901;SDS011;11115;46.038;14.612;2023-02-03T07:54:33;4.30;;;2.73;;
21901;SDS011;11115;46.038;14.612;2023-02-03T07:57:01;4.73;;;2.33;;
21901;SDS011;11115;46.038;14.612;2023-02-03T07:59:28;1.63;;;1.27;;
21901;SDS011;11115;46.038;14.612;2023-02-03T08:01:56;3.93;;;2.17;;
21901;SDS011;11115;46.038;14.612;2023-02-03T08:04:24;5.10;;;2.13;;
21901;SDS011;11115;46.038;14.612;2023-02-03T08:06:51;3.77;;;2.30;;
21901;SDS011;11115;46.038;14.612;2023-02-03T08:09:19;3.17;;;2.00;;
21901;SDS011;11115;46.038;14.612;2023-02-03T08:11:47;1.50;;;1.40;;
21901;SDS011;11115;46.038;14.612;2023-02-03T08:14:14;2.70;;;2.20;;
21901;SDS011;11115;46.038;14.612;2023-02-03T08:16:42;5.57;;;1.37;;
21901;SDS011;11115;46.038;14.612;2023-02-03T08:19:11;5.77;;;3.03;;
21901;SDS011;11115;46.038;14.612;2023-02-03T08:21:39;40.37;;;8.37;;
21901;SDS011;11115;46.038;14.612;2023-02-03T08:24:07;32.50;;;8.13;;
21901;SDS011;11115;46.038;14.612;2023-02-03T08:26:35;10.97;;;3.77;;
21901;SDS011;11115;46.038;14.612;2023-02-03T08:29:03;5.07;;;2.60;;
21901;SDS011;11115;46.038;14.612;2023-02-03T08:31:31;11.20;;;3.47;;
21901;SDS011;11115;46.038;14.612;2023-02-03T08:33:59;3.37;;;2.80;;
21901;SDS011;11115;46.038;14.612;2023-02-03T08:36:26;5.43;;;2.60;;
21901;SDS011;11115;46.038;14.612;2023-02-03T08:38:54;7.00;;;2.87;;
21901;SDS011;11115;46.038;14.612;2023-02-03T08:41:22;15.23;;;5.37;;
21901;SDS011;11115;46.038;14.612;2023-02-03T08:43:49;8.90;;;4.00;;
21901;SDS011;11115;46.038;14.612;2023-02-03T08:46:19;7.70;;;3.13;;
21901;SDS011;11115;46.038;14.612;2023-02-03T08:48:47;6.10;;;2.80;;
21901;SDS011;11115;46.038;14.612;2023-02-03T08:51:16;5.37;;;2.57;;
21901;SDS011;11115;46.038;14.612;2023-02-03T08:53:43;7.00;;;2.90;;
21901;SDS011;11115;46.038;14.612;2023-02-03T08:56:11;10.80;;;2.83;;
21901;SDS011;11115;46.038;14.612;2023-02-03T08:58:39;2.73;;;1.80;;
21901;SDS011;11115;46.038;14.612;2023-02-03T09:01:12;5.97;;;2.70;;
21901;SDS011;11115;46.038;14.612;2023-02-03T09:03:41;5.37;;;2.37;;
21901;SDS011;11115;46.038;14.612;2023-02-03T09:06:09;3.60;;;1.90;;
21901;SDS011;11115;46.038;14.612;2023-02-03T09:08:38;9.60;;;2.00;;
21901;SDS011;11115;46.038;14.612;2023-02-03T09:11:09;9.47;;;2.97;;
21901;SDS011;11115;46.038;14.612;2023-02-03T09:13:39;7.37;;;3.23;;
21901;SDS011;11115;46.038;14.612;2023-02-03T09:16:11;7.77;;;2.40;;
21901;SDS011;11115;46.038;14.612;2023-02-03T09:18:42;10.85;;;2.92;;
21901;SDS011;11115;46.038;14.612;2023-02-03T09:21:11;4.17;;;2.40;;
21901;SDS011;11115;46.038;14.612;2023-02-03T09:24:00;6.47;;;2.77;;
21901;SDS011;11115;46.038;14.612;2023-02-03T09:26:29;4.40;;;2.40;;
21901;SDS011;11115;46.038;14.612;2023-02-03T09:28:57;4.17;;;2.00;;
21901;SDS011;11115;46.038;14.612;2023-02-03T09:31:25;7.37;;;3.13;;
21901;SDS011;11115;46.038;14.612;2023-02-03T09:33:52;7.20;;;2.80;;
21901;SDS011;11115;46.038;14.612;2023-02-03T09:36:20;6.07;;;2.20;;
21901;SDS011;11115;46.038;14.612;2023-02-03T09:38:48;5.97;;;2.37;;
21901;SDS011;11115;46.038;14.612;2023-02-03T09:44:06;7.67;;;2.70;;
21901;SDS011;11115;46.038;14.612;2023-02-03T09:46:59;6.37;;;3.10;;
21901;SDS011;11115;46.038;14.612;2023-02-03T09:55:02;6.63;;;3.33;;
21901;SDS011;11115;46.038;14.612;2023-02-03T09:57:44;7.73;;;3.03;;
21901;SDS011;11115;46.038;14.612;2023-02-03T10:00:20;6.83;;;2.87;;
21901;SDS011;11115;46.038;14.612;2023-02-03T10:05:29;6.47;;;3.00;;
21901;SDS011;11115;46.038;14.612;2023-02-03T10:08:15;7.95;;;3.45;;
21901;SDS011;11115;46.038;14.612;2023-02-03T10:16:32;10.63;;;3.17;;
21901;SDS011;11115;46.038;14.612;2023-02-03T10:19:14;8.13;;;4.03;;
21901;SDS011;11115;46.038;14.612;2023-02-03T10:21:47;10.47;;;3.20;;
21901;SDS011;11115;46.038;14.612;2023-02-03T10:24:25;11.47;;;3.00;;
21901;SDS011;11115;46.038;14.612;2023-02-03T10:26:56;5.23;;;2.70;;
21901;SDS011;11115;46.038;14.612;2023-02-03T10:29:35;7.27;;;3.47;;
21901;SDS011;11115;46.038;14.612;2023-02-03T10:32:08;8.40;;;2.60;;
21901;SDS011;11115;46.038;14.612;2023-02-03T10:34:37;7.67;;;3.07;;
21901;SDS011;11115;46.038;14.612;2023-02-03T10:39:55;6.93;;;2.70;;
21901;SDS011;11115;46.038;14.612;2023-02-03T10:42:23;8.97;;;3.10;;
21901;SDS011;11115;46.038;14.612;2023-02-03T10:45:12;6.60;;;3.03;;
21901;SDS011;11115;46.038;14.612;2023-02-03T10:47:50;9.37;;;3.70;;
21901;SDS011;11115;46.038;14.612;2023-02-03T10:50:22;6.65;;;3.63;;
21901;SDS011;11115;46.038;14.612;2023-02-03T10:55:59;7.22;;;3.38;;
21901;SDS011;11115;46.038;14.612;2023-02-03T10:58:37;10.07;;;3.77;;
21901;SDS011;11115;46.038;14.612;2023-02-03T11:01:10;6.33;;;3.47;;
21901;SDS011;11115;46.038;14.612;2023-02-03T11:03:40;7.03;;;3.23;;
21901;SDS011;11115;46.038;14.612;2023-02-03T11:08:40;3.77;;;2.80;;
21901;SDS011;11115;46.038;14.612;2023-02-03T11:11:13;10.67;;;3.83;;
21901;SDS011;11115;46.038;14.612;2023-02-03T11:14:32;7.20;;;3.40;;
21901;SDS011;11115;46.038;14.612;2023-02-03T11:16:43;8.83;;;3.57;;
21901;SDS011;11115;46.038;14.612;2023-02-03T11:19:16;5.87;;;3.07;;
21901;SDS011;11115;46.038;14.612;2023-02-03T11:21:50;7.43;;;3.13;;
21901;SDS011;11115;46.038;14.612;2023-02-03T11:24:30;12.17;;;3.33;;
21901;SDS011;11115;46.038;14.612;2023-02-03T11:27:08;11.33;;;5.03;;
21901;SDS011;11115;46.038;14.612;2023-02-03T11:29:46;5.37;;;2.90;;
21901;SDS011;11115;46.038;14.612;2023-02-03T11:32:28;7.60;;;4.07;;
21901;SDS011;11115;46.038;14.612;2023-02-03T11:35:04;14.03;;;3.10;;
21901;SDS011;11115;46.038;14.612;2023-02-03T11:37:40;11.37;;;3.80;;
21901;SDS011;11115;46.038;14.612;2023-02-03T11:40:21;14.23;;;4.13;;
21901;SDS011;11115;46.038;14.612;2023-02-03T11:45:29;15.77;;;5.13;;
21901;SDS011;11115;46.038;14.612;2023-02-03T11:51:03;11.87;;;4.47;;
21901;SDS011;11115;46.038;14.612;2023-02-03T12:31:02;9.17;;;3.10;;
21901;SDS011;11115;46.038;14.612;2023-02-03T12:33:39;6.23;;;2.80;;
21901;SDS011;11115;46.038;14.612;2023-02-03T12:42:03;9.43;;;2.87;;
21901;SDS011;11115;46.038;14.612;2023-02-03T12:47:33;5.60;;;2.83;;
21901;SDS011;11115;46.038;14.612;2023-02-03T12:53:11;15.67;;;4.07;;
21901;SDS011;11115;46.038;14.612;2023-02-03T12:55:51;9.53;;;3.60;;
21901;SDS011;11115;46.038;14.612;2023-02-03T12:58:37;6.10;;;3.03;;
21901;SDS011;11115;46.038;14.612;2023-02-03T13:01:15;13.97;;;3.33;;
21901;SDS011;11115;46.038;14.612;2023-02-03T13:03:54;5.97;;;2.90;;
21901;SDS011;11115;46.038;14.612;2023-02-03T13:06:31;8.90;;;3.13;;
21901;SDS011;11115;46.038;14.612;2023-02-03T13:14:36;4.73;;;2.30;;
21901;SDS011;11115;46.038;14.612;2023-02-03T13:17:23;17.63;;;3.43;;
21901;SDS011;11115;46.038;14.612;2023-02-03T13:19:55;8.03;;;3.43;;
21901;SDS011;11115;46.038;14.612;2023-02-03T13:25:08;7.63;;;2.57;;
21901;SDS011;11115;46.038;14.612;2023-02-03T13:27:45;6.50;;;3.40;;
21901;SDS011;11115;46.038;14.612;2023-02-03T13:30:37;3.93;;;2.33;;
21901;SDS011;11115;46.038;14.612;2023-02-03T13:44:13;5.70;;;2.72;;
21901;SDS011;11115;46.038;14.612;2023-02-03T13:46:47;5.73;;;2.47;;
21901;SDS011;11115;46.038;14.612;2023-02-03T13:49:20;11.03;;;3.47;;
21901;SDS011;11115;46.038;14.612;2023-02-03T13:51:51;3.27;;;2.30;;
21901;SDS011;11115;46.038;14.612;2023-02-03T13:54:32;18.27;;;3.87;;
21901;SDS011;11115;46.038;14.612;2023-02-03T13:57:03;7.67;;;2.70;;
21901;SDS011;11115;46.038;14.612;2023-02-03T13:59:44;4.13;;;2.30;;
21901;SDS011;11115;46.038;14.612;2023-02-03T14:04:51;7.60;;;2.50;;
21901;SDS011;11115;46.038;14.612;2023-02-03T14:07:32;3.35;;;2.17;;
21901;SDS011;11115;46.038;14.612;2023-02-03T14:17:54;7.00;;;3.20;;
21901;SDS011;11115;46.038;14.612;2023-02-03T14:25:32;6.30;;;2.57;;
21901;SDS011;11115;46.038;14.612;2023-02-03T14:28:06;6.97;;;3.23;;
21901;SDS011;11115;46.038;14.612;2023-02-03T14:38:54;8.53;;;2.73;;
21901;SDS011;11115;46.038;14.612;2023-02-03T14:47:17;5.43;;;2.22;;
21901;SDS011;11115;46.038;14.612;2023-02-03T14:57:48;5.23;;;3.10;;
21901;SDS011;11115;46.038;14.612;2023-02-03T15:08:03;6.97;;;2.87;;
21901;SDS011;11115;46.038;14.612;2023-02-03T15:10:41;12.73;;;4.57;;
21901;SDS011;11115;46.038;14.612;2023-02-03T15:13:25;6.90;;;3.40;;
21901;SDS011;11115;46.038;14.612;2023-02-03T15:15:58;12.97;;;4.63;;
21901;SDS011;11115;46.038;14.612;2023-02-03T15:18:38;6.23;;;4.07;;
21901;SDS011;11115;46.038;14.612;2023-02-03T15:21:13;7.47;;;2.93;;
21901;SDS011;11115;46.038;14.612;2023-02-03T15:23:44;4.23;;;2.53;;
21901;SDS011;11115;46.038;14.612;2023-02-03T15:26:15;17.57;;;3.40;;
21901;SDS011;11115;46.038;14.612;2023-02-03T15:28:53;16.80;;;3.03;;
21901;SDS011;11115;46.038;14.612;2023-02-03T15:31:45;7.57;;;3.37;;
21901;SDS011;11115;46.038;14.612;2023-02-03T15:34:18;8.38;;;3.20;;
21901;SDS011;11115;46.038;14.612;2023-02-03T15:36:54;8.07;;;2.63;;
21901;SDS011;11115;46.038;14.612;2023-02-03T15:39:32;6.40;;;3.20;;
21901;SDS011;11115;46.038;14.612;2023-02-03T15:42:07;8.97;;;3.37;;
21901;SDS011;11115;46.038;14.612;2023-02-03T15:44:49;12.30;;;3.60;;
21901;SDS011;11115;46.038;14.612;2023-02-03T15:47:24;10.47;;;3.40;;
21901;SDS011;11115;46.038;14.612;2023-02-03T15:49:59;8.60;;;2.40;;
21901;SDS011;11115;46.038;14.612;2023-02-03T15:52:45;3.87;;;2.83;;
21901;SDS011;11115;46.038;14.612;2023-02-03T15:55:32;9.53;;;4.50;;
21901;SDS011;11115;46.038;14.612;2023-02-03T15:58:05;10.00;;;4.30;;
21901;SDS011;11115;46.038;14.612;2023-02-03T16:00:41;11.73;;;4.47;;
21901;SDS011;11115;46.038;14.612;2023-02-03T16:03:16;8.37;;;3.70;;
21901;SDS011;11115;46.038;14.612;2023-02-03T16:05:46;8.63;;;4.27;;
21901;SDS011;11115;46.038;14.612;2023-02-03T16:08:33;8.77;;;3.50;;
21901;SDS011;11115;46.038;14.612;2023-02-03T16:11:22;8.38;;;3.28;;
21901;SDS011;11115;46.038;14.612;2023-02-03T16:14:02;15.90;;;5.03;;
21901;SDS011;11115;46.038;14.612;2023-02-03T16:16:50;7.32;;;3.75;;
21901;SDS011;11115;46.038;14.612;2023-02-03T16:19:31;11.50;;;4.23;;
21901;SDS011;11115;46.038;14.612;2023-02-03T16:22:03;11.93;;;4.00;;
21901;SDS011;11115;46.038;14.612;2023-02-03T16:24:34;6.97;;;4.27;;
21901;SDS011;11115;46.038;14.612;2023-02-03T16:32:38;5.80;;;3.33;;
21901;SDS011;11115;46.038;14.612;2023-02-03T16:35:23;12.37;;;3.50;;
21901;SDS011;11115;46.038;14.612;2023-02-03T16:38:15;8.33;;;3.83;;
21901;SDS011;11115;46.038;14.612;2023-02-03T16:41:01;9.23;;;3.47;;
21901;SDS011;11115;46.038;14.612;2023-02-03T16:43:54;11.77;;;4.10;;
21901;SDS011;11115;46.038;14.612;2023-02-03T16:46:39;11.47;;;4.50;;
21901;SDS011;11115;46.038;14.612;2023-02-03T16:49:24;16.40;;;4.30;;
21901;SDS011;11115;46.038;14.612;2023-02-03T16:52:10;16.90;;;4.37;;
21901;SDS011;11115;46.038;14.612;2023-02-03T16:54:37;16.03;;;4.93;;
21901;SDS011;11115;46.038;14.612;2023-02-03T16:57:05;9.23;;;3.90;;
21901;SDS011;11115;46.038;14.612;2023-02-03T16:59:33;5.53;;;3.13;;
21901;SDS011;11115;46.038;14.612;2023-02-03T17:02:01;10.10;;;3.87;;
21901;SDS011;11115;46.038;14.612;2023-02-03T17:04:29;7.27;;;4.03;;
21901;SDS011;11115;46.038;14.612;2023-02-03T17:06:57;7.80;;;3.73;;
21901;SDS011;11115;46.038;14.612;2023-02-03T17:09:24;13.27;;;4.83;;
21901;SDS011;11115;46.038;14.612;2023-02-03T17:11:52;9.13;;;4.57;;
21901;SDS011;11115;46.038;14.612;2023-02-03T17:14:20;11.57;;;4.80;;
21901;SDS011;11115;46.038;14.612;2023-02-03T17:16:47;12.17;;;4.77;;
21901;SDS011;11115;46.038;14.612;2023-02-03T17:19:15;16.03;;;4.03;;
21901;SDS011;11115;46.038;14.612;2023-02-03T17:21:43;9.57;;;4.83;;
21901;SDS011;11115;46.038;14.612;2023-02-03T17:24:11;15.07;;;3.53;;
21901;SDS011;11115;46.038;14.612;2023-02-03T17:26:38;8.70;;;4.17;;
21901;SDS011;11115;46.038;14.612;2023-02-03T17:29:08;22.83;;;5.90;;
21901;SDS011;11115;46.038;14.612;2023-02-03T17:31:36;13.37;;;5.27;;
21901;SDS011;11115;46.038;14.612;2023-02-03T17:34:04;12.20;;;4.20;;
21901;SDS011;11115;46.038;14.612;2023-02-03T17:36:32;16.27;;;4.43;;
21901;SDS011;11115;46.038;14.612;2023-02-03T17:39:00;15.03;;;4.97;;
21901;SDS011;11115;46.038;14.612;2023-02-03T17:41:46;6.00;;;3.53;;
21901;SDS011;11115;46.038;14.612;2023-02-03T17:44:32;8.23;;;3.13;;
21901;SDS011;11115;46.038;14.612;2023-02-03T17:47:20;8.40;;;4.40;;
21901;SDS011;11115;46.038;14.612;2023-02-03T17:50:05;8.17;;;4.00;;
21901;SDS011;11115;46.038;14.612;2023-02-03T17:52:50;5.57;;;3.83;;
21901;SDS011;11115;46.038;14.612;2023-02-03T17:55:30;10.10;;;4.13;;
21901;SDS011;11115;46.038;14.612;2023-02-03T17:57:59;9.93;;;3.87;;